KJAC

Jackson Hole Airport

Jackson, Wyoming, USA
METAR KJAC 191456Z 00000KT 9SM CLR M17/M18 A3031 RMK AO2 SLP381 T11671183 53005
Observed Flight Rules
Nov-19 @ 14:56 UTC (45 minutes ago) Visual Flight Rules
Visibility Clouds
9 miles
  • Clear skies
Temperatures Readings
Current -17°C / 1°F
Dewpoint -18°C / -0°F
Humidity 92%
Altimeter 30.31" Hg
Pressure 1038.1 hPa
Elevation 1961
METAR KJAC 191456Z 00000KT 9SM CLR M17/M18 A3031 RMK AO2 SLP381 T11671183 53005
Observed Flight Rules
Nov-19 @ 14:56 UTC
(45 minutes ago)
VFR
Clouds
  • Clear skies
Temperature Dewpoint
-17°C / 1°F -18°C / -0°F
Humidity Altimeter Pressure
92% 30.31" Hg 1038.1 hPa